Time;durP1;ratioP1;P1;durP2;ratioP2;P2;SDS_P1;SDS_P2;PMS_P1;PMS_P2;Temp;Humidity;BMP_temperature;BMP_pressure;BME280_temperature;BME280_humidity;BME280_pressure;Samples;Min_cycle;Max_cycle;Signal;HPM_P1;HPM_P2
2024/01/06 00:00:32;;;;;;;8.73;4.97;;;2.90;99.90;;;;;;4848856;29;20071;-73
2024/01/06 00:02:57;;;;;;;9.27;5.13;;;2.90;99.90;;;;;;4847308;29;20046;-73
2024/01/06 00:05:23;;;;;;;8.77;4.60;;;2.90;99.90;;;;;;4870695;29;20131;-73
2024/01/06 00:07:49;;;;;;;8.82;5.55;;;2.90;99.90;;;;;;4860916;29;20045;-73
2024/01/06 00:10:15;;;;;;;10.98;6.00;;;2.80;99.90;;;;;;4861335;29;20045;-73
2024/01/06 00:12:40;;;;;;;9.38;5.03;;;2.90;99.90;;;;;;4861661;29;20485;-72
2024/01/06 00:15:06;;;;;;;9.52;5.28;;;2.80;99.90;;;;;;4846860;29;20593;-72
2024/01/06 00:17:32;;;;;;;8.07;4.80;;;2.80;99.90;;;;;;4851811;29;20397;-72
2024/01/06 00:20:00;;;;;;;8.00;4.30;;;2.80;99.90;;;;;;4857624;29;20053;-72
2024/01/06 00:22:25;;;;;;;;;;;2.80;99.90;;;;;;4841596;29;20045;-72
2024/01/06 00:24:51;;;;;;;8.45;4.97;;;2.80;99.90;;;;;;4857198;29;19950;-72
2024/01/06 00:27:16;;;;;;;8.23;4.38;;;2.70;99.90;;;;;;4863771;29;20042;-72
2024/01/06 00:29:42;;;;;;;8.55;5.10;;;2.80;99.90;;;;;;4857666;29;20056;-72
2024/01/06 00:32:08;;;;;;;9.10;5.07;;;2.80;99.90;;;;;;4846788;29;20042;-73
2024/01/06 00:34:33;;;;;;;10.15;5.53;;;2.80;99.90;;;;;;4847490;29;20058;-72
2024/01/06 00:36:59;;;;;;;8.57;5.20;;;2.70;99.90;;;;;;4852480;29;20049;-72
2024/01/06 00:39:24;;;;;;;10.75;5.15;;;2.70;99.90;;;;;;4864554;29;20041;-73
2024/01/06 00:41:50;;;;;;;10.45;6.10;;;2.70;99.90;;;;;;4852492;29;20478;-73
2024/01/06 00:44:16;;;;;;;11.48;6.38;;;2.70;99.90;;;;;;4869323;29;20068;-72
2024/01/06 00:46:42;;;;;;;12.05;6.78;;;2.70;99.90;;;;;;4858887;29;20138;-72
2024/01/06 00:49:07;;;;;;;12.88;7.55;;;2.70;99.90;;;;;;4873455;29;20089;-73
2024/01/06 00:51:33;;;;;;;14.48;7.80;;;2.70;99.90;;;;;;4845718;29;20049;-72
2024/01/06 00:53:58;;;;;;;15.82;7.90;;;2.70;99.90;;;;;;4852464;29;20064;-72
2024/01/06 00:56:24;;;;;;;14.00;7.45;;;2.70;99.90;;;;;;4868267;29;20537;-72
2024/01/06 00:58:50;;;;;;;13.65;7.95;;;2.70;99.90;;;;;;4865921;29;20613;-72
2024/01/06 01:01:15;;;;;;;12.15;7.30;;;2.70;99.90;;;;;;4860698;29;20038;-72
2024/01/06 01:03:41;;;;;;;14.63;7.93;;;2.70;99.90;;;;;;4885579;29;20673;-72
2024/01/06 01:06:06;;;;;;;12.02;6.85;;;2.70;99.90;;;;;;4851813;29;20041;-72
2024/01/06 01:08:32;;;;;;;13.93;7.68;;;2.70;99.90;;;;;;4859753;29;20037;-72
2024/01/06 01:10:58;;;;;;;11.27;6.68;;;2.70;99.90;;;;;;4844057;29;20042;-72
2024/01/06 01:13:23;;;;;;;12.70;7.68;;;2.70;99.90;;;;;;4843680;29;20052;-73
2024/01/06 01:15:49;;;;;;;12.45;7.88;;;2.70;99.90;;;;;;4862660;29;20645;-72
2024/01/06 01:18:17;;;;;;;13.35;8.10;;;2.60;99.90;;;;;;4852356;29;20057;-72
2024/01/06 01:20:43;;;;;;;11.65;7.68;;;2.70;99.90;;;;;;4849182;29;20046;-72
2024/01/06 01:23:09;;;;;;;12.75;8.07;;;2.60;99.90;;;;;;4857701;29;20072;-72
2024/01/06 01:25:34;;;;;;;11.43;7.47;;;2.60;99.90;;;;;;4850395;29;20045;-72
2024/01/06 01:28:00;;;;;;;15.82;8.77;;;2.50;99.90;;;;;;4862339;29;20120;-72
2024/01/06 01:30:25;;;;;;;11.70;7.18;;;2.50;99.90;;;;;;4850181;29;20058;-72
2024/01/06 01:32:51;;;;;;;13.75;8.48;;;2.50;99.90;;;;;;4859900;29;20434;-73
2024/01/06 01:35:17;;;;;;;13.38;7.85;;;2.50;99.90;;;;;;4848456;29;20099;-73
2024/01/06 01:37:42;;;;;;;15.98;9.85;;;2.50;99.90;;;;;;4857180;29;20049;-72
2024/01/06 01:40:08;;;;;;;18.73;10.30;;;2.40;99.90;;;;;;4851307;29;20053;-72
2024/01/06 01:42:34;;;;;;;16.25;9.88;;;2.40;99.90;;;;;;4861473;29;20490;-72
2024/01/06 01:45:00;;;;;;;17.00;9.95;;;2.40;99.90;;;;;;4855511;29;20086;-72
2024/01/06 01:47:26;;;;;;;19.20;10.50;;;2.40;99.90;;;;;;4834053;29;20081;-72
2024/01/06 01:49:54;;;;;;;16.95;10.73;;;2.30;99.90;;;;;;4843489;29;20375;-72
2024/01/06 01:52:20;;;;;;;15.00;9.10;;;2.30;99.90;;;;;;4853953;29;20061;-72
2024/01/06 01:54:47;;;;;;;19.67;10.90;;;2.30;99.90;;;;;;4867246;29;20045;-73
2024/01/06 01:57:14;;;;;;;19.40;10.65;;;2.30;99.90;;;;;;4871900;29;20664;-72
2024/01/06 01:59:40;;;;;;;19.17;11.38;;;2.30;99.90;;;;;;4868138;29;20040;-73
2024/01/06 02:02:06;;;;;;;15.20;8.90;;;2.30;99.90;;;;;;4865224;29;20124;-72
2024/01/06 02:04:32;;;;;;;19.10;10.68;;;2.30;99.90;;;;;;4856014;29;20072;-73
2024/01/06 02:06:57;;;;;;;22.27;11.77;;;2.20;99.90;;;;;;4838608;29;20045;-72
2024/01/06 02:09:26;;;;;;;20.02;11.25;;;2.20;99.90;;;;;;4850069;29;20514;-72
2024/01/06 02:11:52;;;;;;;19.92;11.48;;;2.20;99.90;;;;;;4862722;29;20104;-72
2024/01/06 02:14:18;;;;;;;19.40;11.25;;;2.20;99.90;;;;;;4877760;29;20052;-72
2024/01/06 02:16:44;;;;;;;18.95;10.25;;;2.20;99.90;;;;;;4846189;29;20037;-72
2024/01/06 02:19:12;;;;;;;17.75;10.32;;;2.30;99.90;;;;;;4889165;29;20143;-72
2024/01/06 02:21:42;;;;;;;18.70;10.57;;;2.30;99.90;;;;;;4854412;29;20072;-72
2024/01/06 02:24:08;;;;;;;17.77;10.52;;;2.30;99.90;;;;;;4850204;29;20116;-72
2024/01/06 02:26:33;;;;;;;18.60;10.10;;;2.20;99.90;;;;;;4857690;29;20041;-72
2024/01/06 02:28:59;;;;;;;18.40;10.95;;;2.20;99.90;;;;;;4850943;29;20066;-72
2024/01/06 02:31:25;;;;;;;17.90;10.23;;;2.20;99.90;;;;;;4845834;29;20054;-72
2024/01/06 02:33:50;;;;;;;16.92;9.77;;;2.20;99.90;;;;;;4843371;29;20049;-72
2024/01/06 02:36:16;;;;;;;18.63;10.50;;;2.20;99.90;;;;;;4862460;29;20064;-72
2024/01/06 02:38:42;;;;;;;18.17;10.32;;;2.20;99.90;;;;;;4859752;29;20384;-72
2024/01/06 02:41:07;;;;;;;16.02;8.65;;;2.20;99.90;;;;;;4857467;29;20056;-72
2024/01/06 02:43:33;;;;;;;16.98;9.85;;;2.20;99.90;;;;;;4851710;29;20105;-72
2024/01/06 02:45:58;;;;;;;18.35;10.95;;;2.20;99.90;;;;;;4850581;29;20111;-72
2024/01/06 02:48:24;;;;;;;18.30;9.90;;;2.10;99.90;;;;;;4843244;29;20129;-73
2024/01/06 02:50:50;;;;;;;19.60;9.90;;;2.10;99.90;;;;;;4862722;29;20147;-72
2024/01/06 02:53:15;;;;;;;18.25;9.05;;;2.10;99.90;;;;;;4838244;29;20052;-72
2024/01/06 02:55:41;;;;;;;16.85;10.35;;;2.10;99.90;;;;;;4848816;29;20084;-72
2024/01/06 02:58:07;;;;;;;16.13;9.55;;;2.00;99.90;;;;;;4862602;29;20127;-71
2024/01/06 03:00:32;;;;;;;17.92;10.02;;;2.00;99.90;;;;;;4855740;29;20064;-72
2024/01/06 03:02:58;;;;;;;19.67;12.02;;;2.00;99.90;;;;;;4864900;29;20092;-72
2024/01/06 03:05:24;;;;;;;16.65;10.43;;;2.00;99.90;;;;;;4885913;29;20096;-72
2024/01/06 03:07:49;;;;;;;19.40;11.02;;;2.00;99.90;;;;;;4835321;29;20491;-72
2024/01/06 03:10:15;;;;;;;19.38;10.20;;;2.00;99.90;;;;;;4888449;29;20105;-72
2024/01/06 03:12:41;;;;;;;21.60;11.25;;;2.00;99.90;;;;;;4889432;29;20128;-73
2024/01/06 03:15:06;;;;;;;20.75;11.23;;;2.00;99.90;;;;;;4886290;29;20110;-72
2024/01/06 03:17:32;;;;;;;20.27;11.63;;;2.00;99.90;;;;;;4860994;29;20068;-72
2024/01/06 03:19:58;;;;;;;20.27;12.27;;;2.00;99.90;;;;;;4847059;29;20049;-72
2024/01/06 03:22:23;;;;;;;21.38;12.88;;;2.00;99.90;;;;;;4865380;29;20068;-72
2024/01/06 03:24:49;;;;;;;24.13;13.95;;;1.90;99.90;;;;;;4847210;29;20558;-72
2024/01/06 03:27:15;;;;;;;21.40;11.05;;;1.90;99.90;;;;;;4860997;29;20064;-72
2024/01/06 03:29:40;;;;;;;22.60;12.10;;;1.90;99.90;;;;;;4860812;29;20049;-73
2024/01/06 03:32:06;;;;;;;17.98;10.32;;;1.90;99.90;;;;;;4851999;29;20058;-72
2024/01/06 03:34:32;;;;;;;22.83;11.82;;;1.90;99.90;;;;;;4855148;29;20072;-72
2024/01/06 03:36:57;;;;;;;18.90;10.50;;;1.90;99.90;;;;;;4861665;29;20124;-72
2024/01/06 03:39:23;;;;;;;21.15;12.07;;;1.80;99.90;;;;;;4872436;29;20045;-73
2024/01/06 03:41:49;;;;;;;17.85;10.82;;;1.80;99.90;;;;;;4849738;29;20057;-72
2024/01/06 03:44:15;;;;;;;20.75;10.90;;;1.80;99.90;;;;;;4859223;29;20041;-73
2024/01/06 03:46:40;;;;;;;18.40;10.80;;;1.70;99.90;;;;;;4893778;29;20053;-72
2024/01/06 03:49:06;;;;;;;19.55;10.35;;;1.70;99.90;;;;;;4850049;29;20046;-72
2024/01/06 03:51:32;;;;;;;23.17;12.40;;;1.70;99.90;;;;;;4856255;29;20041;-72
2024/01/06 03:53:57;;;;;;;22.73;12.48;;;1.70;99.90;;;;;;4858038;29;20054;-72
2024/01/06 03:56:23;;;;;;;21.88;11.40;;;1.80;99.90;;;;;;4854890;29;20048;-72
2024/01/06 03:58:48;;;;;;;18.73;9.50;;;1.80;99.90;;;;;;4865953;29;20113;-72
2024/01/06 04:01:14;;;;;;;20.05;11.05;;;1.80;99.90;;;;;;4847760;29;20041;-72
2024/01/06 04:03:40;;;;;;;21.58;11.73;;;1.80;99.90;;;;;;4854535;29;20421;-73
2024/01/06 04:06:06;;;;;;;17.35;9.68;;;1.80;99.90;;;;;;4861626;29;20049;-72
2024/01/06 04:08:32;;;;;;;21.00;11.25;;;1.70;99.90;;;;;;4861923;29;20529;-72
2024/01/06 04:10:57;;;;;;;20.27;11.07;;;1.70;99.90;;;;;;4861654;29;20057;-72
2024/01/06 04:13:24;;;;;;;19.92;10.50;;;1.70;99.90;;;;;;4847937;29;20049;-72
2024/01/06 04:15:50;;;;;;;24.60;12.55;;;1.70;99.90;;;;;;4853050;29;20049;-72
2024/01/06 04:18:16;;;;;;;21.60;11.70;;;1.70;99.90;;;;;;4855991;29;20075;-73
2024/01/06 04:20:42;;;;;;;23.10;11.88;;;1.70;99.90;;;;;;4866273;29;20533;-72
2024/01/06 04:23:07;;;;;;;21.05;11.60;;;1.70;99.90;;;;;;4847745;29;20105;-72
2024/01/06 04:25:33;;;;;;;17.77;9.60;;;1.60;99.90;;;;;;4849946;29;20463;-72
2024/01/06 04:27:58;;;;;;;17.75;10.00;;;1.60;99.90;;;;;;4859159;29;20048;-72
2024/01/06 04:30:25;;;;;;;18.73;10.32;;;1.60;99.90;;;;;;4855886;29;20105;-72
2024/01/06 04:32:51;;;;;;;17.35;8.73;;;1.60;99.90;;;;;;4860147;29;20048;-72
2024/01/06 04:35:17;;;;;;;17.10;9.50;;;1.70;99.90;;;;;;4861187;29;20053;-72
2024/01/06 04:37:43;;;;;;;14.93;8.57;;;1.60;99.90;;;;;;4861607;29;20092;-72
2024/01/06 04:40:10;;;;;;;19.73;8.68;;;1.70;99.90;;;;;;4857758;29;20046;-72
2024/01/06 04:42:35;;;;;;;14.70;8.60;;;1.70;99.90;;;;;;4852504;29;20073;-72
2024/01/06 04:45:01;;;;;;;16.88;8.00;;;1.70;99.90;;;;;;4864815;29;20087;-72
2024/01/06 04:47:27;;;;;;;16.27;9.25;;;1.70;99.90;;;;;;4856443;29;20109;-72
2024/01/06 04:49:53;;;;;;;14.43;8.50;;;1.70;99.90;;;;;;4848681;29;20045;-72
2024/01/06 04:52:19;;;;;;;14.65;8.15;;;1.70;99.90;;;;;;4869436;29;20534;-72
2024/01/06 04:54:44;;;;;;;17.13;8.93;;;1.80;99.90;;;;;;4852611;29;20053;-72
2024/01/06 04:57:10;;;;;;;15.35;8.40;;;1.80;99.90;;;;;;4868671;29;20053;-72
2024/01/06 04:59:35;;;;;;;16.23;8.93;;;1.80;99.90;;;;;;4850110;29;20054;-72
2024/01/06 05:02:01;;;;;;;12.80;7.85;;;1.80;99.90;;;;;;4845824;29;20041;-72
2024/01/06 05:04:27;;;;;;;15.43;7.43;;;1.80;99.90;;;;;;4858002;29;20410;-72
2024/01/06 05:06:53;;;;;;;13.60;8.38;;;1.70;99.90;;;;;;4855401;29;20169;-72
2024/01/06 05:09:18;;;;;;;14.07;8.05;;;1.70;99.90;;;;;;4855694;29;20037;-72
2024/01/06 05:11:44;;;;;;;17.85;9.52;;;1.60;99.90;;;;;;4864201;29;20057;-72
2024/01/06 05:14:10;;;;;;;16.27;9.18;;;1.70;99.90;;;;;;4843147;29;20048;-72
2024/01/06 05:16:36;;;;;;;15.68;9.43;;;1.60;99.90;;;;;;4842330;29;20688;-72
2024/01/06 05:19:02;;;;;;;15.68;8.45;;;1.60;99.90;;;;;;4847080;29;20046;-72
2024/01/06 05:21:28;;;;;;;15.75;8.65;;;1.60;99.90;;;;;;4858903;29;20042;-72
2024/01/06 05:23:53;;;;;;;17.33;9.35;;;1.70;99.90;;;;;;4882775;29;20053;-72
2024/01/06 05:26:19;;;;;;;16.13;8.88;;;1.70;99.90;;;;;;4855638;29;20037;-72
2024/01/06 05:28:44;;;;;;;17.95;9.65;;;1.70;99.90;;;;;;4858166;29;20057;-72
2024/01/06 05:31:10;;;;;;;16.02;9.52;;;1.70;99.90;;;;;;4861209;29;20510;-72
2024/01/06 05:33:36;;;;;;;16.73;9.40;;;1.60;99.90;;;;;;4845099;29;20058;-71
2024/01/06 05:36:02;;;;;;;17.38;10.02;;;1.60;99.90;;;;;;4841487;29;20069;-72
2024/01/06 05:38:27;;;;;;;18.35;10.00;;;1.50;99.90;;;;;;4856861;29;20414;-72
2024/01/06 05:40:53;;;;;;;21.40;11.65;;;1.50;99.90;;;;;;4859679;29;20041;-71
2024/01/06 05:43:19;;;;;;;19.00;10.10;;;1.50;99.90;;;;;;4860955;29;20053;-72
2024/01/06 05:45:44;;;;;;;22.48;11.52;;;1.50;99.90;;;;;;4869669;29;20037;-72
2024/01/06 05:48:11;;;;;;;18.73;10.40;;;1.50;99.90;;;;;;4858104;29;20050;-72
2024/01/06 05:50:40;;;;;;;21.58;9.77;;;1.50;99.90;;;;;;4862897;29;20042;-72
2024/01/06 05:53:06;;;;;;;21.23;11.73;;;1.50;99.90;;;;;;4879546;29;20595;-72
2024/01/06 05:55:32;;;;;;;19.33;10.32;;;1.50;99.90;;;;;;4857839;29;20048;-72
2024/01/06 05:57:58;;;;;;;18.55;10.80;;;1.50;99.90;;;;;;4833836;29;20105;-72
2024/01/06 06:00:24;;;;;;;23.73;12.13;;;1.50;99.90;;;;;;4849765;29;20050;-72
2024/01/06 06:02:50;;;;;;;19.83;9.00;;;1.40;99.90;;;;;;4862443;29;20139;-71
2024/01/06 06:05:15;;;;;;;20.60;11.15;;;1.50;99.90;;;;;;4863563;29;20051;-71
2024/01/06 06:07:42;;;;;;;24.02;10.63;;;1.40;99.90;;;;;;4888978;29;20073;-72
2024/01/06 06:10:10;;;;;;;21.23;11.25;;;1.40;99.90;;;;;;4847515;29;20055;-72
2024/01/06 06:12:37;;;;;;;20.75;11.02;;;1.40;99.90;;;;;;4857295;29;20132;-72
2024/01/06 06:15:04;;;;;;;20.73;10.77;;;1.40;99.90;;;;;;4850011;29;20052;-72
2024/01/06 06:17:33;;;;;;;23.00;10.10;;;1.30;99.90;;;;;;4848499;29;20053;-72
2024/01/06 06:19:59;;;;;;;22.15;11.20;;;1.40;99.90;;;;;;4863032;29;20059;-72
2024/01/06 06:22:31;;;;;;;22.77;10.35;;;1.30;99.90;;;;;;4882378;29;20057;-72
2024/01/06 06:24:58;;;;;;;21.08;10.23;;;1.30;99.90;;;;;;4844882;29;20079;-71
2024/01/06 06:27:23;;;;;;;22.45;11.23;;;1.30;99.90;;;;;;4850888;29;20042;-72
2024/01/06 06:29:49;;;;;;;22.25;11.38;;;1.20;99.90;;;;;;4861297;29;20064;-72
2024/01/06 06:32:15;;;;;;;21.23;9.90;;;1.30;99.90;;;;;;4853714;29;20110;-72
2024/01/06 06:34:41;;;;;;;22.70;11.05;;;1.40;99.90;;;;;;4861033;29;20632;-72
2024/01/06 06:37:07;;;;;;;22.48;10.93;;;1.40;99.90;;;;;;4869742;29;20092;-72
2024/01/06 06:39:34;;;;;;;21.52;11.45;;;1.40;99.90;;;;;;4881755;29;20084;-72
2024/01/06 06:41:59;;;;;;;21.55;10.73;;;1.40;99.90;;;;;;4864931;29;20049;-72
2024/01/06 06:44:25;;;;;;;23.35;11.75;;;1.40;99.90;;;;;;4880664;29;20045;-72
2024/01/06 06:46:51;;;;;;;22.58;11.10;;;1.40;99.90;;;;;;4870374;29;20048;-72
2024/01/06 06:49:16;;;;;;;22.45;11.43;;;1.40;99.90;;;;;;4869820;29;20041;-72
2024/01/06 06:51:46;;;;;;;18.48;10.00;;;1.40;99.90;;;;;;4864997;29;20095;-71
2024/01/06 06:54:12;;;;;;;24.42;11.23;;;1.50;99.90;;;;;;4860986;29;20045;-72
2024/01/06 06:56:38;;;;;;;24.00;11.55;;;1.50;99.90;;;;;;4865441;29;20045;-72
2024/01/06 06:59:05;;;;;;;20.88;9.52;;;1.50;99.90;;;;;;4872651;29;20125;-72
2024/01/06 07:01:30;;;;;;;22.60;11.00;;;1.40;99.90;;;;;;4873249;29;20045;-72
2024/01/06 07:03:56;;;;;;;21.77;10.48;;;1.40;99.90;;;;;;4871736;29;20042;-72
2024/01/06 07:06:22;;;;;;;19.70;10.70;;;1.40;99.90;;;;;;4871870;29;20088;-72
2024/01/06 07:08:47;;;;;;;22.40;11.43;;;1.40;99.90;;;;;;4863676;29;20049;-72
2024/01/06 07:11:15;;;;;;;21.15;11.65;;;1.40;99.90;;;;;;4878522;29;20040;-72
2024/01/06 07:13:40;;;;;;;21.20;11.52;;;1.40;99.90;;;;;;4885169;29;20088;-72
2024/01/06 07:16:07;;;;;;;21.85;11.25;;;1.40;99.90;;;;;;4881399;29;20079;-72
2024/01/06 07:18:32;;;;;;;20.13;10.18;;;1.40;99.90;;;;;;4868739;29;20041;-72
2024/01/06 07:20:58;;;;;;;19.70;10.48;;;1.40;99.90;;;;;;4872529;29;20132;-72
2024/01/06 07:23:24;;;;;;;19.92;11.05;;;1.40;99.90;;;;;;4863619;29;20057;-72
2024/01/06 07:25:49;;;;;;;21.42;11.07;;;1.40;99.90;;;;;;4867559;29;20056;-72
2024/01/06 07:28:15;;;;;;;23.88;12.73;;;1.30;99.90;;;;;;4886864;29;20127;-72
2024/01/06 07:30:41;;;;;;;22.05;11.48;;;1.30;99.90;;;;;;4875015;29;20056;-72
2024/01/06 07:33:06;;;;;;;20.55;10.98;;;1.30;99.90;;;;;;4880094;29;20087;-71
2024/01/06 07:35:32;;;;;;;22.05;9.90;;;1.40;99.90;;;;;;4874777;29;20065;-72
2024/01/06 07:37:57;;;;;;;19.15;9.15;;;1.30;99.90;;;;;;4855548;29;20132;-72
2024/01/06 07:40:25;;;;;;;18.85;10.20;;;1.40;99.90;;;;;;4881030;29;20052;-72
2024/01/06 07:42:51;;;;;;;;;;;1.30;99.90;;;;;;4879780;29;20045;-72
2024/01/06 07:45:17;;;;;;;17.75;10.18;;;1.40;99.90;;;;;;4878045;29;19932;-72
2024/01/06 07:47:43;;;;;;;17.60;9.70;;;1.40;99.90;;;;;;4880083;29;20502;-73
2024/01/06 07:50:09;;;;;;;19.55;9.73;;;1.40;99.90;;;;;;4865940;29;20045;-72
2024/01/06 07:52:35;;;;;;;17.75;9.75;;;1.30;99.90;;;;;;4860413;29;20057;-72
2024/01/06 07:55:00;;;;;;;17.60;10.20;;;1.30;99.90;;;;;;4883053;29;20052;-72
2024/01/06 07:57:26;;;;;;;17.08;9.30;;;1.30;99.90;;;;;;4879042;29;20045;-74
2024/01/06 07:59:52;;;;;;;15.75;8.52;;;1.30;99.90;;;;;;4886452;29;20468;-73
2024/01/06 08:02:18;;;;;;;15.93;9.05;;;1.30;99.90;;;;;;4866279;29;20161;-76
2024/01/06 08:04:44;;;;;;;19.80;10.50;;;1.30;99.90;;;;;;4870088;29;20152;-72
2024/01/06 08:07:10;;;;;;;18.38;9.45;;;1.30;99.90;;;;;;4860724;29;20071;-72
2024/01/06 08:09:36;;;;;;;18.92;10.57;;;1.30;99.90;;;;;;4873008;29;20470;-71
2024/01/06 08:12:03;;;;;;;17.60;10.20;;;1.30;99.90;;;;;;4878312;29;20445;-72
2024/01/06 08:14:28;;;;;;;15.50;9.32;;;1.20;99.90;;;;;;4867508;29;21689;-72
2024/01/06 08:16:54;;;;;;;19.75;9.05;;;1.30;99.90;;;;;;4867043;29;20057;-72
2024/01/06 08:19:20;;;;;;;16.13;9.60;;;1.30;99.90;;;;;;4865685;29;20056;-72
2024/01/06 08:21:47;;;;;;;16.00;9.00;;;1.30;99.90;;;;;;4855347;29;20104;-74
2024/01/06 08:24:12;;;;;;;17.02;9.43;;;1.30;99.90;;;;;;4870994;29;20076;-77
2024/01/06 08:26:38;;;;;;;16.83;8.73;;;1.30;99.90;;;;;;4875442;29;20061;-77
2024/01/06 08:29:04;;;;;;;18.80;10.43;;;1.30;99.90;;;;;;4861291;29;20512;-76
2024/01/06 08:31:29;;;;;;;18.00;10.02;;;1.30;99.90;;;;;;4877051;29;20044;-75
2024/01/06 08:33:55;;;;;;;18.73;10.40;;;1.30;99.90;;;;;;4844552;29;20663;-75
2024/01/06 08:36:21;;;;;;;18.20;10.30;;;1.20;99.90;;;;;;4864737;29;20056;-76
2024/01/06 08:38:47;;;;;;;17.50;9.20;;;1.20;99.90;;;;;;4862732;29;20049;-75
2024/01/06 08:41:13;;;;;;;19.83;10.73;;;1.30;99.90;;;;;;4871906;29;20097;-75
2024/01/06 08:43:38;;;;;;;17.42;10.95;;;1.30;99.90;;;;;;4860760;29;20522;-75
2024/01/06 08:46:05;;;;;;;17.80;10.18;;;1.30;99.90;;;;;;4864924;29;20037;-74
2024/01/06 08:48:31;;;;;;;17.10;9.50;;;1.30;99.90;;;;;;4861531;29;20053;-75
2024/01/06 08:50:57;;;;;;;16.77;9.20;;;1.40;99.90;;;;;;4872163;29;20049;-75
2024/01/06 08:53:22;;;;;;;16.83;10.27;;;1.40;99.90;;;;;;4873602;29;20044;-74
2024/01/06 08:55:48;;;;;;;16.20;9.23;;;1.40;99.90;;;;;;4866066;29;20053;-74
2024/01/06 08:58:13;;;;;;;18.20;10.63;;;1.40;99.90;;;;;;4858113;29;20042;-74
2024/01/06 09:00:39;;;;;;;18.08;10.55;;;1.50;99.90;;;;;;4859548;29;20036;-75
2024/01/06 09:03:05;;;;;;;18.38;10.27;;;1.50;99.90;;;;;;4857415;29;20041;-76
2024/01/06 09:05:31;;;;;;;17.40;9.82;;;1.50;99.90;;;;;;4860039;29;20036;-73
2024/01/06 09:07:56;;;;;;;17.60;10.55;;;1.60;99.90;;;;;;4872891;29;20038;-73
2024/01/06 09:10:22;;;;;;;18.38;11.00;;;1.60;99.90;;;;;;4858296;29;20073;-73
2024/01/06 09:12:48;;;;;;;17.58;10.57;;;1.60;99.90;;;;;;4879861;29;20433;-79
2024/01/06 09:15:13;;;;;;;18.33;10.80;;;1.60;99.90;;;;;;4856026;29;20053;-73
2024/01/06 09:17:40;;;;;;;16.48;9.90;;;1.60;99.90;;;;;;4868538;29;20060;-77
2024/01/06 09:20:06;;;;;;;18.37;10.20;;;1.60;99.90;;;;;;4844110;29;20534;-74
2024/01/06 09:22:32;;;;;;;16.55;9.63;;;1.70;99.90;;;;;;4867002;29;20049;-76
2024/01/06 09:24:58;;;;;;;17.13;9.30;;;1.70;99.90;;;;;;4857556;29;20402;-74
2024/01/06 09:27:23;;;;;;;16.55;9.63;;;1.70;99.90;;;;;;4868150;29;20048;-76
2024/01/06 09:29:50;;;;;;;15.77;9.15;;;1.70;99.90;;;;;;4848756;29;20049;-79
2024/01/06 09:32:16;;;;;;;15.35;9.35;;;1.70;99.90;;;;;;4884211;29;20572;-74
2024/01/06 09:34:42;;;;;;;16.85;10.48;;;1.60;99.90;;;;;;4883729;29;20045;-74
2024/01/06 09:37:07;;;;;;;17.55;10.70;;;1.60;99.90;;;;;;4870004;29;20060;-74
2024/01/06 09:39:33;;;;;;;16.13;9.85;;;1.60;99.90;;;;;;4861990;29;20041;-73
2024/01/06 09:41:58;;;;;;;15.98;9.65;;;1.70;99.90;;;;;;4856370;29;20060;-74
2024/01/06 09:44:24;;;;;;;15.75;10.32;;;1.60;99.90;;;;;;4868469;29;20041;-75
2024/01/06 09:46:50;;;;;;;19.80;10.55;;;1.60;99.90;;;;;;4875288;29;20085;-76
2024/01/06 09:49:23;;;;;;;16.20;9.35;;;1.60;99.90;;;;;;4866584;29;20057;-74
2024/01/06 09:51:51;;;;;;;16.52;9.55;;;1.60;99.90;;;;;;4875259;29;20123;-77
2024/01/06 09:54:22;;;;;;;17.23;10.32;;;1.60;99.90;;;;;;4865255;29;20041;-78
2024/01/06 09:56:49;;;;;;;16.13;9.70;;;1.60;99.90;;;;;;4883841;29;20099;-79
2024/01/06 09:59:15;;;;;;;16.80;10.43;;;1.60;99.90;;;;;;4876660;29;20056;-80
2024/01/06 10:01:41;;;;;;;16.90;9.32;;;1.60;99.90;;;;;;4858308;29;20067;-80
2024/01/06 10:04:07;;;;;;;16.67;10.13;;;1.60;99.90;;;;;;4857640;29;20068;-79
2024/01/06 10:06:33;;;;;;;18.27;10.23;;;1.70;99.90;;;;;;4869461;29;20663;-76
2024/01/06 10:08:59;;;;;;;16.00;9.70;;;1.70;99.90;;;;;;4845798;29;20049;-84
2024/01/06 10:11:26;;;;;;;15.32;9.32;;;1.70;99.90;;;;;;4841629;29;20094;-82
2024/01/06 10:13:53;;;;;;;15.00;8.97;;;1.70;99.90;;;;;;4875536;29;20051;-87
2024/01/06 10:16:19;;;;;;;;;;;1.80;99.90;;;;;;4867639;29;20057;-83
2024/01/06 10:18:45;;;;;;;16.63;10.35;;;1.80;99.90;;;;;;4859756;29;19953;-87
2024/01/06 10:21:11;;;;;;;17.75;10.25;;;1.80;99.90;;;;;;4858181;29;20048;-77
2024/01/06 10:23:36;;;;;;;16.25;10.15;;;1.80;99.90;;;;;;4855204;29;20485;-80
2024/01/06 10:26:03;;;;;;;15.23;9.55;;;1.80;99.90;;;;;;4866220;29;20463;-81
2024/01/06 10:28:29;;;;;;;14.80;9.32;;;1.80;99.90;;;;;;4866583;29;20041;-79
2024/01/06 10:30:56;;;;;;;18.08;10.52;;;1.80;99.90;;;;;;4840560;29;20078;-79
2024/01/06 10:33:22;;;;;;;15.15;9.68;;;1.80;99.90;;;;;;4866175;29;20064;-80
2024/01/06 10:35:49;;;;;;;15.48;10.18;;;1.80;99.90;;;;;;4868798;29;20405;-80
2024/01/06 10:38:15;;;;;;;16.13;10.68;;;1.70;99.90;;;;;;4879308;29;20060;-81
2024/01/06 10:40:57;;;;;;;15.57;9.80;;;1.70;99.90;;;;;;4868215;29;20064;-77
2024/01/06 10:43:25;;;;;;;17.45;10.77;;;1.60;99.90;;;;;;4881452;29;20052;-77
2024/01/06 10:45:53;;;;;;;18.33;11.52;;;1.60;99.90;;;;;;4885443;29;20053;-75
2024/01/06 10:48:20;;;;;;;18.80;10.77;;;1.60;99.90;;;;;;4844868;29;20461;-73
2024/01/06 10:50:47;;;;;;;16.42;10.20;;;1.60;99.90;;;;;;4866674;29;20073;-77
2024/01/06 10:53:14;;;;;;;17.52;11.00;;;1.60;99.90;;;;;;4869593;29;20053;-75
2024/01/06 10:55:41;;;;;;;19.83;11.30;;;1.60;99.90;;;;;;4854194;29;20049;-75
2024/01/06 10:58:09;;;;;;;19.90;11.40;;;1.60;99.90;;;;;;4865084;29;20148;-74
2024/01/06 11:00:34;;;;;;;17.73;10.45;;;1.70;99.90;;;;;;4861039;29;20053;-75
2024/01/06 11:03:01;;;;;;;18.58;11.40;;;1.70;99.90;;;;;;4873469;29;20052;-78
2024/01/06 11:05:27;;;;;;;18.75;10.98;;;1.70;99.90;;;;;;4871629;29;20056;-76
2024/01/06 11:07:59;;;;;;;18.63;10.67;;;1.80;99.90;;;;;;4851830;29;20083;-77
2024/01/06 11:10:27;;;;;;;20.90;11.57;;;1.80;99.90;;;;;;4840720;29;20587;-76
2024/01/06 11:13:10;;;;;;;19.00;10.95;;;1.80;99.90;;;;;;4794263;29;20750;-75
2024/01/06 11:15:47;;;;;;;19.50;12.07;;;1.70;99.90;;;;;;4815362;29;20044;-76
2024/01/06 11:18:34;;;;;;;18.58;11.95;;;1.80;99.90;;;;;;4805545;29;20065;-74
2024/01/06 11:21:17;;;;;;;23.52;12.15;;;1.80;99.90;;;;;;4818425;29;20052;-73
2024/01/06 11:23:44;;;;;;;21.92;12.10;;;1.70;99.90;;;;;;4858336;29;20041;-76
2024/01/06 11:26:10;;;;;;;23.43;12.30;;;1.70;99.90;;;;;;4856127;29;20049;-75
2024/01/06 11:28:50;;;;;;;21.60;12.95;;;1.80;99.90;;;;;;4872261;29;20053;-76
2024/01/06 11:31:16;;;;;;;21.15;12.95;;;1.70;99.90;;;;;;4871535;29;20072;-74
2024/01/06 11:33:48;;;;;;;23.92;12.88;;;1.70;99.90;;;;;;4871511;29;20508;-78
2024/01/06 11:36:15;;;;;;;23.95;13.05;;;1.70;99.90;;;;;;4874277;29;20512;-80
2024/01/06 11:38:41;;;;;;;22.95;12.70;;;1.70;99.90;;;;;;4859065;29;20059;-74
2024/01/06 11:41:30;;;;;;;22.80;12.68;;;1.70;99.90;;;;;;4877249;29;20040;-72
2024/01/06 11:43:56;;;;;;;23.40;13.43;;;1.70;99.90;;;;;;4866863;29;20077;-75
2024/01/06 11:46:21;;;;;;;22.92;13.80;;;1.70;99.90;;;;;;4854701;29;20529;-76
2024/01/06 11:48:51;;;;;;;24.05;14.13;;;1.70;99.90;;;;;;4851266;29;20045;-76
2024/01/06 11:51:18;;;;;;;21.42;13.68;;;1.80;99.90;;;;;;4871435;29;20093;-77
2024/01/06 11:53:45;;;;;;;23.52;13.48;;;1.80;99.90;;;;;;4882228;29;20084;-74
2024/01/06 11:56:11;;;;;;;22.25;13.88;;;1.80;99.90;;;;;;4873474;29;20056;-83
2024/01/06 11:58:40;;;;;;;25.83;15.10;;;1.70;99.90;;;;;;4863861;29;20045;-80
2024/01/06 12:01:05;;;;;;;24.52;14.75;;;1.70;99.90;;;;;;4851900;29;20053;-77
2024/01/06 12:03:31;;;;;;;26.02;14.35;;;1.70;99.90;;;;;;4869460;29;20387;-78
2024/01/06 12:06:02;;;;;;;23.13;14.07;;;1.80;99.90;;;;;;4865992;29;20587;-81
2024/01/06 12:08:28;;;;;;;21.52;14.05;;;1.80;99.90;;;;;;4872238;29;20121;-81
2024/01/06 12:11:03;;;;;;;25.92;15.48;;;1.80;99.90;;;;;;4855027;29;20033;-76
2024/01/06 12:13:28;;;;;;;23.00;14.07;;;1.80;99.90;;;;;;4871176;29;20040;-76
2024/01/06 12:15:55;;;;;;;25.17;14.30;;;1.70;99.90;;;;;;4872005;29;20424;-74
2024/01/06 12:18:20;;;;;;;23.60;12.88;;;1.80;99.90;;;;;;4867665;29;22708;-73
2024/01/06 12:20:46;;;;;;;23.17;13.60;;;1.80;99.90;;;;;;4855983;29;20576;-75
2024/01/06 12:23:12;;;;;;;22.83;13.00;;;1.70;99.90;;;;;;4874414;29;20132;-75
2024/01/06 12:25:39;;;;;;;24.48;13.98;;;1.70;99.90;;;;;;4864970;29;20057;-77
2024/01/06 12:28:05;;;;;;;23.92;13.25;;;1.70;99.90;;;;;;4869589;29;20084;-77
2024/01/06 12:30:34;;;;;;;22.67;14.03;;;1.70;99.90;;;;;;4869695;29;20521;-78
2024/01/06 12:33:01;;;;;;;24.45;13.88;;;1.70;99.90;;;;;;4856444;29;20782;-79
2024/01/06 12:35:26;;;;;;;21.50;13.30;;;1.70;99.90;;;;;;4878800;29;20064;-78
2024/01/06 12:37:52;;;;;;;24.88;14.48;;;1.70;99.90;;;;;;4854961;29;20054;-77